sensor_id;sensor_type;location;lat;lon;timestamp;P1;durP1;ratioP1;P2;durP2;ratioP2
75191;SDS011;63771;52.580;9.734;2023-06-10T00:00:36;5.10;;;3.30;;
75191;SDS011;63771;52.580;9.734;2023-06-10T00:03:01;7.32;;;3.92;;
75191;SDS011;63771;52.580;9.734;2023-06-10T00:05:27;4.87;;;3.77;;
75191;SDS011;63771;52.580;9.734;2023-06-10T00:07:55;3.50;;;3.20;;
75191;SDS011;63771;52.580;9.734;2023-06-10T00:10:21;3.33;;;2.90;;
75191;SDS011;63771;52.580;9.734;2023-06-10T00:12:47;6.40;;;3.88;;
75191;SDS011;63771;52.580;9.734;2023-06-10T00:15:12;4.32;;;3.28;;
75191;SDS011;63771;52.580;9.734;2023-06-10T00:17:37;4.27;;;3.20;;
75191;SDS011;63771;52.580;9.734;2023-06-10T00:20:04;3.83;;;3.50;;
75191;SDS011;63771;52.580;9.734;2023-06-10T00:22:33;5.60;;;3.40;;
75191;SDS011;63771;52.580;9.734;2023-06-10T00:24:59;6.13;;;3.15;;
75191;SDS011;63771;52.580;9.734;2023-06-10T00:27:24;4.43;;;2.90;;
75191;SDS011;63771;52.580;9.734;2023-06-10T00:29:51;3.53;;;3.22;;
75191;SDS011;63771;52.580;9.734;2023-06-10T00:32:16;3.53;;;2.88;;
75191;SDS011;63771;52.580;9.734;2023-06-10T00:34:42;4.27;;;3.87;;
75191;SDS011;63771;52.580;9.734;2023-06-10T00:37:07;5.77;;;3.23;;
75191;SDS011;63771;52.580;9.734;2023-06-10T00:39:32;4.23;;;3.70;;
75191;SDS011;63771;52.580;9.734;2023-06-10T00:41:58;4.60;;;3.70;;
75191;SDS011;63771;52.580;9.734;2023-06-10T00:44:23;3.87;;;3.20;;
75191;SDS011;63771;52.580;9.734;2023-06-10T00:46:48;3.83;;;3.37;;
75191;SDS011;63771;52.580;9.734;2023-06-10T00:49:16;4.30;;;3.72;;
75191;SDS011;63771;52.580;9.734;2023-06-10T00:51:41;6.38;;;3.60;;
75191;SDS011;63771;52.580;9.734;2023-06-10T00:54:07;5.53;;;3.35;;
75191;SDS011;63771;52.580;9.734;2023-06-10T00:56:33;7.15;;;3.70;;
75191;SDS011;63771;52.580;9.734;2023-06-10T00:59:00;4.63;;;3.22;;
75191;SDS011;63771;52.580;9.734;2023-06-10T01:01:25;4.85;;;3.20;;
75191;SDS011;63771;52.580;9.734;2023-06-10T01:03:51;5.57;;;3.60;;
75191;SDS011;63771;52.580;9.734;2023-06-10T01:06:20;4.80;;;3.13;;
75191;SDS011;63771;52.580;9.734;2023-06-10T01:09:06;5.50;;;3.60;;
75191;SDS011;63771;52.580;9.734;2023-06-10T01:12:05;4.95;;;3.58;;
75191;SDS011;63771;52.580;9.734;2023-06-10T01:14:34;6.53;;;4.03;;
75191;SDS011;63771;52.580;9.734;2023-06-10T01:17:00;4.60;;;3.15;;
75191;SDS011;63771;52.580;9.734;2023-06-10T01:19:26;5.32;;;3.45;;
75191;SDS011;63771;52.580;9.734;2023-06-10T01:21:51;5.35;;;3.53;;
75191;SDS011;63771;52.580;9.734;2023-06-10T01:24:17;4.15;;;3.25;;
75191;SDS011;63771;52.580;9.734;2023-06-10T01:26:43;5.72;;;3.83;;
75191;SDS011;63771;52.580;9.734;2023-06-10T01:31:54;5.68;;;3.83;;
75191;SDS011;63771;52.580;9.734;2023-06-10T01:34:28;10.63;;;4.68;;
75191;SDS011;63771;52.580;9.734;2023-06-10T01:39:23;4.72;;;3.53;;
75191;SDS011;63771;52.580;9.734;2023-06-10T01:41:50;4.07;;;3.67;;
75191;SDS011;63771;52.580;9.734;2023-06-10T01:44:17;5.82;;;3.42;;
75191;SDS011;63771;52.580;9.734;2023-06-10T01:46:46;4.85;;;3.92;;
75191;SDS011;63771;52.580;9.734;2023-06-10T01:49:12;5.35;;;3.42;;
75191;SDS011;63771;52.580;9.734;2023-06-10T01:51:38;4.90;;;3.17;;
75191;SDS011;63771;52.580;9.734;2023-06-10T01:54:03;5.50;;;3.53;;
75191;SDS011;63771;52.580;9.734;2023-06-10T01:56:28;5.07;;;3.40;;
75191;SDS011;63771;52.580;9.734;2023-06-10T01:58:54;4.78;;;4.38;;
75191;SDS011;63771;52.580;9.734;2023-06-10T02:01:24;6.57;;;4.57;;
75191;SDS011;63771;52.580;9.734;2023-06-10T02:03:49;4.72;;;3.95;;
75191;SDS011;63771;52.580;9.734;2023-06-10T02:06:15;4.60;;;4.20;;
75191;SDS011;63771;52.580;9.734;2023-06-10T02:08:40;5.23;;;3.93;;
75191;SDS011;63771;52.580;9.734;2023-06-10T02:11:05;5.47;;;4.10;;
75191;SDS011;63771;52.580;9.734;2023-06-10T02:13:32;6.75;;;3.78;;
75191;SDS011;63771;52.580;9.734;2023-06-10T02:15:57;5.35;;;3.70;;
75191;SDS011;63771;52.580;9.734;2023-06-10T02:18:22;5.60;;;3.80;;
75191;SDS011;63771;52.580;9.734;2023-06-10T02:20:48;3.67;;;3.30;;
75191;SDS011;63771;52.580;9.734;2023-06-10T02:23:13;8.18;;;4.88;;
75191;SDS011;63771;52.580;9.734;2023-06-10T02:25:39;4.88;;;3.90;;
75191;SDS011;63771;52.580;9.734;2023-06-10T02:28:05;4.75;;;3.72;;
75191;SDS011;63771;52.580;9.734;2023-06-10T02:30:30;7.03;;;4.22;;
75191;SDS011;63771;52.580;9.734;2023-06-10T02:32:55;5.63;;;4.63;;
75191;SDS011;63771;52.580;9.734;2023-06-10T02:35:21;4.90;;;3.28;;
75191;SDS011;63771;52.580;9.734;2023-06-10T02:37:49;5.43;;;3.65;;
75191;SDS011;63771;52.580;9.734;2023-06-10T02:40:15;6.55;;;3.88;;
75191;SDS011;63771;52.580;9.734;2023-06-10T02:42:40;5.55;;;4.07;;
75191;SDS011;63771;52.580;9.734;2023-06-10T02:45:06;6.77;;;3.80;;
75191;SDS011;63771;52.580;9.734;2023-06-10T02:47:32;5.53;;;3.58;;
75191;SDS011;63771;52.580;9.734;2023-06-10T02:49:57;6.57;;;4.37;;
75191;SDS011;63771;52.580;9.734;2023-06-10T02:52:22;5.33;;;4.20;;
75191;SDS011;63771;52.580;9.734;2023-06-10T02:54:48;6.70;;;4.00;;
75191;SDS011;63771;52.580;9.734;2023-06-10T02:57:13;4.47;;;4.07;;
75191;SDS011;63771;52.580;9.734;2023-06-10T02:59:39;4.60;;;4.20;;
75191;SDS011;63771;52.580;9.734;2023-06-10T03:02:05;5.65;;;4.45;;
75191;SDS011;63771;52.580;9.734;2023-06-10T03:04:30;4.00;;;3.55;;
75191;SDS011;63771;52.580;9.734;2023-06-10T03:06:56;12.15;;;5.53;;
75191;SDS011;63771;52.580;9.734;2023-06-10T03:09:21;6.35;;;4.03;;
75191;SDS011;63771;52.580;9.734;2023-06-10T03:11:46;7.60;;;4.60;;
75191;SDS011;63771;52.580;9.734;2023-06-10T03:14:12;11.30;;;4.47;;
75191;SDS011;63771;52.580;9.734;2023-06-10T03:16:37;6.05;;;4.57;;
75191;SDS011;63771;52.580;9.734;2023-06-10T03:21:31;4.18;;;3.78;;
75191;SDS011;63771;52.580;9.734;2023-06-10T03:23:56;5.03;;;4.50;;
75191;SDS011;63771;52.580;9.734;2023-06-10T03:26:21;7.23;;;4.20;;
75191;SDS011;63771;52.580;9.734;2023-06-10T03:28:47;13.70;;;5.03;;
75191;SDS011;63771;52.580;9.734;2023-06-10T03:31:12;6.18;;;4.57;;
75191;SDS011;63771;52.580;9.734;2023-06-10T03:33:38;5.07;;;4.13;;
75191;SDS011;63771;52.580;9.734;2023-06-10T03:36:04;12.50;;;4.25;;
75191;SDS011;63771;52.580;9.734;2023-06-10T03:38:29;6.68;;;4.43;;
75191;SDS011;63771;52.580;9.734;2023-06-10T03:40:55;8.30;;;4.50;;
75191;SDS011;63771;52.580;9.734;2023-06-10T03:43:20;6.97;;;5.20;;
75191;SDS011;63771;52.580;9.734;2023-06-10T03:45:46;5.72;;;4.38;;
75191;SDS011;63771;52.580;9.734;2023-06-10T03:48:13;6.90;;;4.32;;
75191;SDS011;63771;52.580;9.734;2023-06-10T03:50:38;4.90;;;4.40;;
75191;SDS011;63771;52.580;9.734;2023-06-10T03:53:03;4.90;;;4.27;;
75191;SDS011;63771;52.580;9.734;2023-06-10T03:55:29;5.72;;;4.72;;
75191;SDS011;63771;52.580;9.734;2023-06-10T03:57:54;5.15;;;4.53;;
75191;SDS011;63771;52.580;9.734;2023-06-10T04:00:20;5.68;;;5.15;;
75191;SDS011;63771;52.580;9.734;2023-06-10T04:02:46;5.43;;;4.60;;
75191;SDS011;63771;52.580;9.734;2023-06-10T04:05:14;8.48;;;5.38;;
75191;SDS011;63771;52.580;9.734;2023-06-10T04:07:41;6.18;;;5.47;;
75191;SDS011;63771;52.580;9.734;2023-06-10T04:10:07;8.35;;;5.32;;
75191;SDS011;63771;52.580;9.734;2023-06-10T04:12:34;7.40;;;4.95;;
75191;SDS011;63771;52.580;9.734;2023-06-10T04:14:59;7.78;;;5.15;;
75191;SDS011;63771;52.580;9.734;2023-06-10T04:17:25;6.95;;;4.93;;
75191;SDS011;63771;52.580;9.734;2023-06-10T04:19:50;6.38;;;5.18;;
75191;SDS011;63771;52.580;9.734;2023-06-10T04:22:17;8.20;;;5.80;;
75191;SDS011;63771;52.580;9.734;2023-06-10T04:24:42;7.50;;;5.07;;
75191;SDS011;63771;52.580;9.734;2023-06-10T04:27:08;8.65;;;4.78;;
75191;SDS011;63771;52.580;9.734;2023-06-10T04:29:33;8.30;;;5.45;;
75191;SDS011;63771;52.580;9.734;2023-06-10T04:31:59;8.10;;;5.65;;
75191;SDS011;63771;52.580;9.734;2023-06-10T04:34:25;9.70;;;6.15;;
75191;SDS011;63771;52.580;9.734;2023-06-10T04:36:50;7.63;;;5.20;;
75191;SDS011;63771;52.580;9.734;2023-06-10T04:39:16;7.35;;;5.60;;
75191;SDS011;63771;52.580;9.734;2023-06-10T04:41:42;10.10;;;5.68;;
75191;SDS011;63771;52.580;9.734;2023-06-10T04:44:07;8.20;;;5.57;;
75191;SDS011;63771;52.580;9.734;2023-06-10T04:46:32;10.30;;;5.63;;
75191;SDS011;63771;52.580;9.734;2023-06-10T04:48:58;8.52;;;6.80;;
75191;SDS011;63771;52.580;9.734;2023-06-10T04:51:23;8.85;;;6.45;;
75191;SDS011;63771;52.580;9.734;2023-06-10T04:53:48;13.10;;;5.93;;
75191;SDS011;63771;52.580;9.734;2023-06-10T04:56:14;9.77;;;6.43;;
75191;SDS011;63771;52.580;9.734;2023-06-10T04:58:40;7.57;;;5.75;;
75191;SDS011;63771;52.580;9.734;2023-06-10T05:01:05;7.30;;;5.87;;
75191;SDS011;63771;52.580;9.734;2023-06-10T05:03:31;8.52;;;5.05;;
75191;SDS011;63771;52.580;9.734;2023-06-10T05:05:56;8.10;;;5.90;;
75191;SDS011;63771;52.580;9.734;2023-06-10T05:08:21;6.13;;;5.50;;
75191;SDS011;63771;52.580;9.734;2023-06-10T05:10:47;8.48;;;5.35;;
75191;SDS011;63771;52.580;9.734;2023-06-10T05:13:12;7.22;;;5.45;;
75191;SDS011;63771;52.580;9.734;2023-06-10T05:15:37;7.67;;;6.60;;
75191;SDS011;63771;52.580;9.734;2023-06-10T05:18:03;7.60;;;6.80;;
75191;SDS011;63771;52.580;9.734;2023-06-10T05:20:28;8.25;;;5.35;;
75191;SDS011;63771;52.580;9.734;2023-06-10T05:22:53;5.85;;;5.20;;
75191;SDS011;63771;52.580;9.734;2023-06-10T05:25:19;7.68;;;5.80;;
75191;SDS011;63771;52.580;9.734;2023-06-10T05:27:44;9.70;;;6.27;;
75191;SDS011;63771;52.580;9.734;2023-06-10T05:30:10;11.52;;;5.63;;
75191;SDS011;63771;52.580;9.734;2023-06-10T05:32:37;7.70;;;5.68;;
75191;SDS011;63771;52.580;9.734;2023-06-10T05:35:02;7.93;;;5.73;;
75191;SDS011;63771;52.580;9.734;2023-06-10T05:37:29;8.23;;;6.10;;
75191;SDS011;63771;52.580;9.734;2023-06-10T05:39:55;10.82;;;6.00;;
75191;SDS011;63771;52.580;9.734;2023-06-10T05:42:20;15.10;;;6.03;;
75191;SDS011;63771;52.580;9.734;2023-06-10T05:44:45;9.73;;;5.90;;
75191;SDS011;63771;52.580;9.734;2023-06-10T05:47:11;7.40;;;5.60;;
75191;SDS011;63771;52.580;9.734;2023-06-10T05:49:36;9.33;;;5.17;;
75191;SDS011;63771;52.580;9.734;2023-06-10T05:52:01;5.93;;;5.30;;
75191;SDS011;63771;52.580;9.734;2023-06-10T05:54:27;8.90;;;5.78;;
75191;SDS011;63771;52.580;9.734;2023-06-10T05:56:52;6.07;;;5.20;;
75191;SDS011;63771;52.580;9.734;2023-06-10T05:59:17;8.75;;;5.95;;
75191;SDS011;63771;52.580;9.734;2023-06-10T06:01:43;6.23;;;5.57;;
75191;SDS011;63771;52.580;9.734;2023-06-10T06:04:08;7.07;;;6.00;;
75191;SDS011;63771;52.580;9.734;2023-06-10T06:06:34;8.65;;;5.50;;
75191;SDS011;63771;52.580;9.734;2023-06-10T06:09:01;7.40;;;5.63;;
75191;SDS011;63771;52.580;9.734;2023-06-10T06:11:26;12.75;;;6.15;;
75191;SDS011;63771;52.580;9.734;2023-06-10T06:13:52;8.60;;;6.18;;
75191;SDS011;63771;52.580;9.734;2023-06-10T06:16:17;6.53;;;5.70;;
75191;SDS011;63771;52.580;9.734;2023-06-10T06:18:43;6.05;;;5.40;;
75191;SDS011;63771;52.580;9.734;2023-06-10T06:21:08;6.75;;;5.35;;
75191;SDS011;63771;52.580;9.734;2023-06-10T06:23:34;8.65;;;5.60;;
75191;SDS011;63771;52.580;9.734;2023-06-10T06:25:59;5.57;;;5.07;;
75191;SDS011;63771;52.580;9.734;2023-06-10T06:28:24;6.47;;;4.60;;
75191;SDS011;63771;52.580;9.734;2023-06-10T06:30:53;11.85;;;6.88;;
75191;SDS011;63771;52.580;9.734;2023-06-10T06:33:19;6.18;;;4.97;;
75191;SDS011;63771;52.580;9.734;2023-06-10T06:35:44;8.20;;;5.60;;
75191;SDS011;63771;52.580;9.734;2023-06-10T06:38:10;8.82;;;5.55;;
75191;SDS011;63771;52.580;9.734;2023-06-10T06:40:35;6.50;;;5.10;;
75191;SDS011;63771;52.580;9.734;2023-06-10T06:43:00;6.23;;;5.63;;
75191;SDS011;63771;52.580;9.734;2023-06-10T06:45:26;10.23;;;5.30;;
75191;SDS011;63771;52.580;9.734;2023-06-10T06:47:51;7.70;;;6.13;;
75191;SDS011;63771;52.580;9.734;2023-06-10T06:50:16;5.68;;;4.95;;
75191;SDS011;63771;52.580;9.734;2023-06-10T06:52:42;8.48;;;5.50;;
75191;SDS011;63771;52.580;9.734;2023-06-10T06:55:07;9.13;;;5.67;;
75191;SDS011;63771;52.580;9.734;2023-06-10T06:57:32;10.98;;;5.53;;
75191;SDS011;63771;52.580;9.734;2023-06-10T06:59:58;8.00;;;5.73;;
75191;SDS011;63771;52.580;9.734;2023-06-10T07:02:23;8.67;;;5.90;;
75191;SDS011;63771;52.580;9.734;2023-06-10T07:04:48;9.57;;;6.40;;
75191;SDS011;63771;52.580;9.734;2023-06-10T07:07:14;7.97;;;5.95;;
75191;SDS011;63771;52.580;9.734;2023-06-10T07:09:40;8.15;;;5.72;;
75191;SDS011;63771;52.580;9.734;2023-06-10T07:12:05;7.07;;;5.43;;
75191;SDS011;63771;52.580;9.734;2023-06-10T07:14:31;7.95;;;5.55;;
75191;SDS011;63771;52.580;9.734;2023-06-10T07:16:57;8.83;;;5.87;;
75191;SDS011;63771;52.580;9.734;2023-06-10T07:19:22;6.40;;;5.80;;
75191;SDS011;63771;52.580;9.734;2023-06-10T07:21:47;6.57;;;4.82;;
75191;SDS011;63771;52.580;9.734;2023-06-10T07:24:12;6.50;;;5.43;;
75191;SDS011;63771;52.580;9.734;2023-06-10T07:26:38;6.10;;;5.40;;
75191;SDS011;63771;52.580;9.734;2023-06-10T07:29:03;6.85;;;5.68;;
75191;SDS011;63771;52.580;9.734;2023-06-10T07:31:29;5.30;;;4.70;;
75191;SDS011;63771;52.580;9.734;2023-06-10T07:33:54;10.43;;;5.20;;
75191;SDS011;63771;52.580;9.734;2023-06-10T07:36:19;5.13;;;4.65;;
75191;SDS011;63771;52.580;9.734;2023-06-10T07:38:45;5.43;;;4.93;;
75191;SDS011;63771;52.580;9.734;2023-06-10T07:41:10;8.87;;;5.77;;
75191;SDS011;63771;52.580;9.734;2023-06-10T07:43:36;5.50;;;5.00;;
75191;SDS011;63771;52.580;9.734;2023-06-10T07:46:02;7.43;;;5.30;;
75191;SDS011;63771;52.580;9.734;2023-06-10T07:48:27;7.70;;;4.90;;
75191;SDS011;63771;52.580;9.734;2023-06-10T07:50:52;5.87;;;4.70;;
75191;SDS011;63771;52.580;9.734;2023-06-10T07:53:18;6.83;;;5.13;;
75191;SDS011;63771;52.580;9.734;2023-06-10T07:55:43;10.45;;;6.28;;
75191;SDS011;63771;52.580;9.734;2023-06-10T07:58:08;8.20;;;6.53;;
75191;SDS011;63771;52.580;9.734;2023-06-10T08:00:34;8.07;;;5.57;;
75191;SDS011;63771;52.580;9.734;2023-06-10T08:02:59;7.67;;;4.97;;
75191;SDS011;63771;52.580;9.734;2023-06-10T08:05:24;7.20;;;5.17;;
75191;SDS011;63771;52.580;9.734;2023-06-10T08:07:50;7.03;;;5.33;;
75191;SDS011;63771;52.580;9.734;2023-06-10T08:10:15;6.17;;;5.30;;
75191;SDS011;63771;52.580;9.734;2023-06-10T08:12:40;6.67;;;5.10;;
75191;SDS011;63771;52.580;9.734;2023-06-10T08:15:06;7.13;;;4.80;;
75191;SDS011;63771;52.580;9.734;2023-06-10T08:17:31;5.90;;;5.30;;
75191;SDS011;63771;52.580;9.734;2023-06-10T08:19:57;6.63;;;5.20;;
75191;SDS011;63771;52.580;9.734;2023-06-10T08:22:22;5.65;;;5.15;;
75191;SDS011;63771;52.580;9.734;2023-06-10T08:24:47;6.90;;;4.68;;
75191;SDS011;63771;52.580;9.734;2023-06-10T08:27:13;6.75;;;5.50;;
75191;SDS011;63771;52.580;9.734;2023-06-10T08:29:38;5.53;;;4.72;;
75191;SDS011;63771;52.580;9.734;2023-06-10T08:32:04;6.18;;;4.95;;
75191;SDS011;63771;52.580;9.734;2023-06-10T08:34:33;5.90;;;5.30;;
75191;SDS011;63771;52.580;9.734;2023-06-10T08:37:00;6.30;;;4.95;;
75191;SDS011;63771;52.580;9.734;2023-06-10T08:39:25;7.70;;;6.17;;
75191;SDS011;63771;52.580;9.734;2023-06-10T08:41:58;8.53;;;4.83;;
75191;SDS011;63771;52.580;9.734;2023-06-10T08:44:31;6.45;;;5.20;;
75191;SDS011;63771;52.580;9.734;2023-06-10T08:47:00;9.23;;;5.03;;
75191;SDS011;63771;52.580;9.734;2023-06-10T08:49:31;9.05;;;4.90;;
75191;SDS011;63771;52.580;9.734;2023-06-10T08:52:03;6.20;;;5.13;;
75191;SDS011;63771;52.580;9.734;2023-06-10T08:54:30;6.03;;;4.65;;
75191;SDS011;63771;52.580;9.734;2023-06-10T08:56:59;9.75;;;5.25;;
75191;SDS011;63771;52.580;9.734;2023-06-10T08:59:28;8.00;;;5.45;;
75191;SDS011;63771;52.580;9.734;2023-06-10T09:01:54;5.75;;;5.25;;
75191;SDS011;63771;52.580;9.734;2023-06-10T09:04:19;6.22;;;4.85;;
75191;SDS011;63771;52.580;9.734;2023-06-10T09:06:45;6.07;;;4.88;;
75191;SDS011;63771;52.580;9.734;2023-06-10T09:09:12;6.45;;;5.30;;
75191;SDS011;63771;52.580;9.734;2023-06-10T09:11:40;8.18;;;5.03;;
75191;SDS011;63771;52.580;9.734;2023-06-10T09:14:07;7.22;;;5.03;;
75191;SDS011;63771;52.580;9.734;2023-06-10T09:16:32;6.07;;;5.45;;
75191;SDS011;63771;52.580;9.734;2023-06-10T09:18:58;5.68;;;4.97;;
75191;SDS011;63771;52.580;9.734;2023-06-10T09:21:24;6.03;;;5.43;;
75191;SDS011;63771;52.580;9.734;2023-06-10T09:23:50;9.75;;;5.25;;
75191;SDS011;63771;52.580;9.734;2023-06-10T09:26:16;7.15;;;5.35;;
75191;SDS011;63771;52.580;9.734;2023-06-10T09:28:43;5.13;;;4.63;;
75191;SDS011;63771;52.580;9.734;2023-06-10T09:31:09;6.97;;;4.82;;
75191;SDS011;63771;52.580;9.734;2023-06-10T09:33:38;6.20;;;5.35;;
75191;SDS011;63771;52.580;9.734;2023-06-10T09:36:07;7.10;;;5.00;;
75191;SDS011;63771;52.580;9.734;2023-06-10T09:38:33;8.77;;;4.85;;
75191;SDS011;63771;52.580;9.734;2023-06-10T09:40:59;5.07;;;4.40;;
75191;SDS011;63771;52.580;9.734;2023-06-10T09:43:47;5.70;;;4.38;;
75191;SDS011;63771;52.580;9.734;2023-06-10T09:46:14;7.00;;;4.80;;
75191;SDS011;63771;52.580;9.734;2023-06-10T09:48:41;5.47;;;4.72;;
75191;SDS011;63771;52.580;9.734;2023-06-10T09:51:09;7.88;;;5.00;;
75191;SDS011;63771;52.580;9.734;2023-06-10T09:53:35;4.45;;;3.97;;
75191;SDS011;63771;52.580;9.734;2023-06-10T09:56:00;6.28;;;4.93;;
75191;SDS011;63771;52.580;9.734;2023-06-10T09:58:38;4.93;;;4.30;;
75191;SDS011;63771;52.580;9.734;2023-06-10T10:01:11;4.63;;;4.22;;
75191;SDS011;63771;52.580;9.734;2023-06-10T10:03:44;4.53;;;4.13;;
75191;SDS011;63771;52.580;9.734;2023-06-10T10:06:11;4.60;;;4.20;;
75191;SDS011;63771;52.580;9.734;2023-06-10T10:08:37;5.70;;;4.32;;
75191;SDS011;63771;52.580;9.734;2023-06-10T10:11:02;6.13;;;5.03;;
75191;SDS011;63771;52.580;9.734;2023-06-10T10:13:28;5.75;;;4.38;;
75191;SDS011;63771;52.580;9.734;2023-06-10T10:15:56;5.10;;;4.32;;
75191;SDS011;63771;52.580;9.734;2023-06-10T10:18:25;7.97;;;4.53;;
75191;SDS011;63771;52.580;9.734;2023-06-10T10:20:55;8.40;;;4.35;;
75191;SDS011;63771;52.580;9.734;2023-06-10T10:23:24;5.60;;;5.00;;
75191;SDS011;63771;52.580;9.734;2023-06-10T10:25:56;6.15;;;4.43;;
75191;SDS011;63771;52.580;9.734;2023-06-10T10:28:25;8.15;;;4.22;;
75191;SDS011;63771;52.580;9.734;2023-06-10T10:30:59;5.78;;;4.35;;
75191;SDS011;63771;52.580;9.734;2023-06-10T10:33:42;5.10;;;4.60;;
75191;SDS011;63771;52.580;9.734;2023-06-10T10:36:16;7.30;;;4.63;;
75191;SDS011;63771;52.580;9.734;2023-06-10T10:38:43;4.80;;;4.40;;
75191;SDS011;63771;52.580;9.734;2023-06-10T10:41:12;6.35;;;4.72;;
75191;SDS011;63771;52.580;9.734;2023-06-10T10:43:38;4.97;;;4.57;;
75191;SDS011;63771;52.580;9.734;2023-06-10T10:46:11;5.60;;;4.05;;
75191;SDS011;63771;52.580;9.734;2023-06-10T10:48:38;7.78;;;4.72;;
75191;SDS011;63771;52.580;9.734;2023-06-10T10:51:06;12.55;;;4.70;;
75191;SDS011;63771;52.580;9.734;2023-06-10T10:53:31;4.50;;;4.20;;
75191;SDS011;63771;52.580;9.734;2023-06-10T10:56:00;6.93;;;4.50;;
75191;SDS011;63771;52.580;9.734;2023-06-10T10:58:31;8.20;;;4.18;;
75191;SDS011;63771;52.580;9.734;2023-06-10T11:00:59;7.97;;;4.18;;
75191;SDS011;63771;52.580;9.734;2023-06-10T11:03:28;5.85;;;3.65;;
75191;SDS011;63771;52.580;9.734;2023-06-10T11:05:57;5.88;;;4.78;;
75191;SDS011;63771;52.580;9.734;2023-06-10T11:10:57;5.63;;;4.63;;
75191;SDS011;63771;52.580;9.734;2023-06-10T11:13:22;6.40;;;5.03;;
75191;SDS011;63771;52.580;9.734;2023-06-10T11:15:50;8.30;;;4.32;;
75191;SDS011;63771;52.580;9.734;2023-06-10T11:18:22;8.07;;;4.50;;
75191;SDS011;63771;52.580;9.734;2023-06-10T11:20:53;4.70;;;4.30;;
75191;SDS011;63771;52.580;9.734;2023-06-10T11:28:45;6.10;;;5.57;;
75191;SDS011;63771;52.580;9.734;2023-06-10T11:31:28;5.82;;;4.35;;
75191;SDS011;63771;52.580;9.734;2023-06-10T11:36:24;8.73;;;4.47;;
75191;SDS011;63771;52.580;9.734;2023-06-10T11:38:51;8.05;;;4.57;;
75191;SDS011;63771;52.580;9.734;2023-06-10T11:41:20;5.55;;;4.72;;
75191;SDS011;63771;52.580;9.734;2023-06-10T11:43:46;5.10;;;4.38;;
75191;SDS011;63771;52.580;9.734;2023-06-10T11:46:12;6.40;;;5.25;;
75191;SDS011;63771;52.580;9.734;2023-06-10T11:48:38;5.10;;;4.60;;
75191;SDS011;63771;52.580;9.734;2023-06-10T11:51:07;6.90;;;5.15;;
75191;SDS011;63771;52.580;9.734;2023-06-10T11:53:33;8.20;;;5.25;;
75191;SDS011;63771;52.580;9.734;2023-06-10T11:55:58;8.52;;;4.95;;
75191;SDS011;63771;52.580;9.734;2023-06-10T11:58:24;8.18;;;4.57;;
75191;SDS011;63771;52.580;9.734;2023-06-10T12:00:51;6.28;;;4.97;;
75191;SDS011;63771;52.580;9.734;2023-06-10T12:03:23;5.57;;;4.95;;
75191;SDS011;63771;52.580;9.734;2023-06-10T12:06:01;5.75;;;4.50;;
75191;SDS011;63771;52.580;9.734;2023-06-10T12:08:28;5.05;;;4.47;;
75191;SDS011;63771;52.580;9.734;2023-06-10T12:10:54;5.00;;;4.40;;
75191;SDS011;63771;52.580;9.734;2023-06-10T12:13:21;6.03;;;4.32;;
75191;SDS011;63771;52.580;9.734;2023-06-10T12:15:48;5.07;;;4.63;;
75191;SDS011;63771;52.580;9.734;2023-06-10T12:18:20;7.30;;;4.88;;
75191;SDS011;63771;52.580;9.734;2023-06-10T12:20:47;5.75;;;4.93;;
75191;SDS011;63771;52.580;9.734;2023-06-10T12:23:13;5.20;;;4.70;;
75191;SDS011;63771;52.580;9.734;2023-06-10T12:25:39;5.38;;;4.65;;
75191;SDS011;63771;52.580;9.734;2023-06-10T12:28:15;6.65;;;4.18;;
75191;SDS011;63771;52.580;9.734;2023-06-10T12:30:41;6.95;;;4.95;;
75191;SDS011;63771;52.580;9.734;2023-06-10T12:33:15;6.75;;;5.22;;
75191;SDS011;63771;52.580;9.734;2023-06-10T12:35:46;8.43;;;5.60;;
75191;SDS011;63771;52.580;9.734;2023-06-10T12:38:13;7.32;;;5.45;;
75191;SDS011;63771;52.580;9.734;2023-06-10T12:40:39;5.13;;;4.72;;
75191;SDS011;63771;52.580;9.734;2023-06-10T12:43:05;5.47;;;4.40;;
75191;SDS011;63771;52.580;9.734;2023-06-10T12:45:34;8.15;;;5.10;;
75191;SDS011;63771;52.580;9.734;2023-06-10T12:48:08;5.50;;;4.97;;
75191;SDS011;63771;52.580;9.734;2023-06-10T12:53:07;5.78;;;5.25;;
75191;SDS011;63771;52.580;9.734;2023-06-10T12:55:34;7.65;;;5.28;;
75191;SDS011;63771;52.580;9.734;2023-06-10T12:58:00;6.47;;;5.80;;
75191;SDS011;63771;52.580;9.734;2023-06-10T13:00:26;5.32;;;4.82;;
75191;SDS011;63771;52.580;9.734;2023-06-10T13:02:54;5.80;;;5.30;;
75191;SDS011;63771;52.580;9.734;2023-06-10T13:05:20;7.53;;;5.30;;
75191;SDS011;63771;52.580;9.734;2023-06-10T13:07:45;6.43;;;5.72;;
75191;SDS011;63771;52.580;9.734;2023-06-10T13:10:12;5.72;;;5.03;;
75191;SDS011;63771;52.580;9.734;2023-06-10T13:12:38;5.90;;;5.30;;
75191;SDS011;63771;52.580;9.734;2023-06-10T13:15:04;6.10;;;5.50;;
75191;SDS011;63771;52.580;9.734;2023-06-10T13:17:30;5.38;;;4.53;;
75191;SDS011;63771;52.580;9.734;2023-06-10T13:19:55;7.13;;;5.23;;
75191;SDS011;63771;52.580;9.734;2023-06-10T13:22:21;5.53;;;5.03;;
75191;SDS011;63771;52.580;9.734;2023-06-10T13:24:46;6.40;;;5.18;;
75191;SDS011;63771;52.580;9.734;2023-06-10T13:27:12;5.75;;;4.78;;
75191;SDS011;63771;52.580;9.734;2023-06-10T13:29:39;6.35;;;4.82;;
75191;SDS011;63771;52.580;9.734;2023-06-10T13:32:05;5.38;;;4.88;;
75191;SDS011;63771;52.580;9.734;2023-06-10T13:34:31;7.57;;;5.07;;
75191;SDS011;63771;52.580;9.734;2023-06-10T13:36:56;8.30;;;4.72;;
75191;SDS011;63771;52.580;9.734;2023-06-10T13:39:21;5.63;;;5.03;;
75191;SDS011;63771;52.580;9.734;2023-06-10T13:41:47;5.30;;;4.90;;
75191;SDS011;63771;52.580;9.734;2023-06-10T13:44:12;5.53;;;5.00;;
75191;SDS011;63771;52.580;9.734;2023-06-10T13:46:37;7.33;;;5.53;;
75191;SDS011;63771;52.580;9.734;2023-06-10T13:49:02;6.47;;;4.83;;
75191;SDS011;63771;52.580;9.734;2023-06-10T13:51:28;6.37;;;5.17;;
75191;SDS011;63771;52.580;9.734;2023-06-10T13:53:53;6.33;;;5.60;;
75191;SDS011;63771;52.580;9.734;2023-06-10T13:56:18;5.57;;;5.07;;
75191;SDS011;63771;52.580;9.734;2023-06-10T13:58:44;5.97;;;5.47;;
75191;SDS011;63771;52.580;9.734;2023-06-10T14:01:10;7.47;;;5.20;;
75191;SDS011;63771;52.580;9.734;2023-06-10T14:03:35;5.95;;;5.40;;
75191;SDS011;63771;52.580;9.734;2023-06-10T14:06:00;6.32;;;5.50;;
75191;SDS011;63771;52.580;9.734;2023-06-10T14:08:26;5.38;;;4.72;;
75191;SDS011;63771;52.580;9.734;2023-06-10T14:10:52;4.95;;;4.55;;
75191;SDS011;63771;52.580;9.734;2023-06-10T14:13:17;5.70;;;5.20;;
75191;SDS011;63771;52.580;9.734;2023-06-10T14:15:43;5.80;;;5.18;;
75191;SDS011;63771;52.580;9.734;2023-06-10T14:18:08;5.40;;;4.90;;
75191;SDS011;63771;52.580;9.734;2023-06-10T14:20:34;5.43;;;4.93;;
75191;SDS011;63771;52.580;9.734;2023-06-10T14:22:59;7.03;;;4.93;;
75191;SDS011;63771;52.580;9.734;2023-06-10T14:25:24;6.93;;;5.07;;
75191;SDS011;63771;52.580;9.734;2023-06-10T14:27:50;5.40;;;4.93;;
75191;SDS011;63771;52.580;9.734;2023-06-10T14:30:16;6.78;;;5.38;;
75191;SDS011;63771;52.580;9.734;2023-06-10T14:32:41;6.78;;;5.90;;
75191;SDS011;63771;52.580;9.734;2023-06-10T14:35:07;7.25;;;5.95;;
75191;SDS011;63771;52.580;9.734;2023-06-10T14:37:32;7.15;;;5.97;;
75191;SDS011;63771;52.580;9.734;2023-06-10T14:39:58;6.87;;;5.40;;
75191;SDS011;63771;52.580;9.734;2023-06-10T14:42:23;8.00;;;5.57;;
75191;SDS011;63771;52.580;9.734;2023-06-10T14:44:48;5.38;;;4.80;;
75191;SDS011;63771;52.580;9.734;2023-06-10T14:47:14;6.05;;;4.88;;
75191;SDS011;63771;52.580;9.734;2023-06-10T14:49:40;7.05;;;6.07;;
75191;SDS011;63771;52.580;9.734;2023-06-10T14:52:07;8.15;;;6.40;;
75191;SDS011;63771;52.580;9.734;2023-06-10T14:54:33;6.97;;;5.32;;
75191;SDS011;63771;52.580;9.734;2023-06-10T14:56:58;7.07;;;5.70;;
75191;SDS011;63771;52.580;9.734;2023-06-10T14:59:23;5.93;;;5.32;;
75191;SDS011;63771;52.580;9.734;2023-06-10T15:01:49;6.00;;;5.45;;
75191;SDS011;63771;52.580;9.734;2023-06-10T15:04:14;5.80;;;4.83;;